Main page
METAR-TAF:

METAR-TAF

Airports :

Zvartnots International Airport

Yerevan, Armenia

latitude: 40-08-50N, longitude: 044-23-45E, elevation: 865 m

Current weather observation

The report was made 31 minutes ago, at 21:30 UTC
Wind 3 kt from the North, varying between Northwest and North/Northeast
Temperature 12°C
Humidity 47%
Pressure 1020 hPa
Visibility 10 km or more

METAR: UDYZ 252130Z 35003KT 310V020 9999 NSC 12/01 Q1020 R09/010070 NOSIG

Time: 02:01 (22:01 UTC)

Forecast

The report was made 5 hours and 1 minutes ago, at 17:00 UTC
Forecast valid from 25 at 18 UTC to 26 at 18 UTC
Wind 6 kt from the North/Northeast
Visibility 10 km or more
Few clouds at a height of 4000 ft
Temporary
from 25 at 18 UTC to 25 at 24 UTC
Wind 20 kt from the East

TAF: UDYZ 251700Z 2518/2618 02006KT 9999 FEW040 TEMPO 2518/2524 08020KT

Weather observations and forecasts of more than 4000 airports (METAR and TAF reports).

The available stations are represented by yellow and red dots on the map.

Hover mouse over dot to see the name of the station.

Then click to see weather observations and forecasts.

To change the map : click on the green buttons with a black cross to zoom in, on the green button with a dash to zoom out, or on the green arrows for adjacent maps.


METAR-TAF: